M I D A S
Marine Information and Data Acquisition System
Tripno 2251 of the Zeeleeuw from 2012-01-09 07:45:25 to 2012-01-09 16:54:30
Back to CruiseResearch ActivitiesStationsMapUnderway DataData graphs

EquipmentUnitsComment
TimeDGPSUTC
LatitudeDGPSDM.mWGS84
LongitudeDGPSDM.mWGS84
HeadingGyrodeg 
SOGDGPSknotsSpeed over ground
COGDGPSdegCourse over ground
DepthEcho soundermeters200 kHz
Missing or incorrect values are displayed as -999
Navigation data collected by the RV Zeeleeuw from 2012-01-09 07:41:39 to 2012-01-09 17:03:19
                                                                                    Next 1000 lines
Time Latitude Longitude Heading SOG COG Depth
2012-01-09 07:41:49 51°13.636 2°56.018 124.3 -999 6 -999
2012-01-09 07:41:54 51°13.636 2°56.018 124.3 0.1 14 -999
2012-01-09 07:41:59 51°13.636 2°56.018 124.3 -999 41 -999
2012-01-09 07:42:04 51°13.636 2°56.018 124.3 -999 172 7.3
2012-01-09 07:42:09 51°13.636 2°56.018 124.2 -999 86 7.1
2012-01-09 07:42:14 51°13.636 2°56.018 124.2 -999 9 -999
2012-01-09 07:42:19 51°13.636 2°56.018 124.2 0.1 11 -999
2012-01-09 07:42:24 51°13.636 2°56.018 124.2 0.1 12 -999
2012-01-09 07:42:29 51°13.636 2°56.018 124.2 -999 37 -999
2012-01-09 07:42:34 51°13.636 2°56.018 124.2 0.1 201 -999
2012-01-09 07:42:39 51°13.636 2°56.018 124.3 -999 201 -999
2012-01-09 07:42:44 51°13.636 2°56.018 124.4 -999 194 -999
2012-01-09 07:42:49 51°13.636 2°56.018 124.4 -999 174 -999
2012-01-09 07:42:54 51°13.636 2°56.018 124.4 -999 68 -999
2012-01-09 07:42:59 51°13.636 2°56.018 124.3 0.1 23 -999
2012-01-09 07:43:04 51°13.635 2°56.018 124.2 0.1 194 -999
2012-01-09 07:43:09 51°13.635 2°56.018 124.2 0.1 194 -999
2012-01-09 07:43:14 51°13.635 2°56.018 124.2 0.1 192 -999
2012-01-09 07:43:19 51°13.635 2°56.018 124.2 -999 208 -999
2012-01-09 07:43:24 51°13.635 2°56.018 124.2 0.1 193 -999
2012-01-09 07:43:29 51°13.635 2°56.018 124.3 -999 191 -999
2012-01-09 07:43:34 51°13.635 2°56.018 124.5 -999 187 -999
2012-01-09 07:43:39 51°13.635 2°56.018 124.6 -999 170 -999
2012-01-09 07:43:44 51°13.635 2°56.018 124.7 0.1 180 -999
2012-01-09 07:43:49 51°13.635 2°56.018 124.9 -999 76 7.4
2012-01-09 07:43:54 51°13.635 2°56.018 124.9 -999 15 -999
2012-01-09 07:43:59 51°13.635 2°56.018 124.9 -999 56 -999
2012-01-09 07:44:04 51°13.635 2°56.018 124.9 -999 125 -999
2012-01-09 07:44:09 51°13.635 2°56.018 125.1 0.1 174 -999
2012-01-09 07:44:14 51°13.635 2°56.017 125.2 -999 282 7.4
2012-01-09 07:44:19 51°13.635 2°56.017 125.4 -999 289 7.4
2012-01-09 07:44:24 51°13.635 2°56.017 125.8 0.1 204 -999
2012-01-09 07:44:29 51°13.635 2°56.017 126.2 0.1 181 -999
2012-01-09 07:44:34 51°13.635 2°56.017 126.4 -999 37 -999
2012-01-09 07:44:39 51°13.635 2°56.018 126.4 0.2 19 -999
2012-01-09 07:44:44 51°13.636 2°56.018 126.3 0.1 15 -999
2012-01-09 07:44:49 51°13.635 2°56.017 126.1 0.1 355 7.4
2012-01-09 07:44:54 51°13.635 2°56.018 126.1 -999 276 -999
2012-01-09 07:44:59 51°13.635 2°56.018 126.1 0.1 7 -999
2012-01-09 07:45:04 51°13.635 2°56.018 126.2 -999 14 -999
2012-01-09 07:45:09 51°13.635 2°56.018 126.3 -999 221 -999
2012-01-09 07:45:14 51°13.636 2°56.018 126.3 -999 38 7.5
2012-01-09 07:45:19 51°13.636 2°56.018 126.3 -999 35 7.5
2012-01-09 07:45:24 51°13.636 2°56.018 126.3 -999 356 -999
2012-01-09 07:45:29 51°13.636 2°56.018 126.3 -999 188 -999
2012-01-09 07:45:34 51°13.636 2°56.018 126.4 -999 3 -999
2012-01-09 07:45:39 51°13.636 2°56.018 126.4 0.1 11 -999
2012-01-09 07:45:44 51°13.636 2°56.018 126.4 0.1 17 -999
2012-01-09 07:45:49 51°13.636 2°56.018 126.4 -999 17 -999
2012-01-09 07:45:54 51°13.636 2°56.018 126.4 -999 178 -999
2012-01-09 07:45:59 51°13.636 2°56.018 126.4 -999 21 -999
2012-01-09 07:46:04 51°13.636 2°56.018 126.4 0.1 8 -999
2012-01-09 07:46:09 51°13.636 2°56.018 126.4 0.1 13 -999
2012-01-09 07:46:14 51°13.636 2°56.018 126.4 0.1 11 -999
2012-01-09 07:46:19 51°13.636 2°56.018 126.4 0.1 10 -999
2012-01-09 07:46:24 51°13.636 2°56.018 126.4 -999 18 -999
2012-01-09 07:46:29 51°13.636 2°56.018 126.4 0.1 1 -999
2012-01-09 07:46:34 51°13.636 2°56.018 126.4 -999 32 -999
2012-01-09 07:46:39 51°13.636 2°56.018 126.4 -999 26 -999
2012-01-09 07:46:44 51°13.636 2°56.018 126.4 -999 10 -999
2012-01-09 07:46:49 51°13.636 2°56.018 126.4 0.1 10 -999
2012-01-09 07:46:54 51°13.636 2°56.018 126.4 0.1 8 -999
2012-01-09 07:46:59 51°13.636 2°56.018 126.4 0.1 9 -999
2012-01-09 07:47:04 51°13.636 2°56.018 126.4 -999 19 -999
2012-01-09 07:47:09 51°13.635 2°56.018 126.4 -999 141 -999
2012-01-09 07:47:14 51°13.635 2°56.018 126.4 -999 159 -999
2012-01-09 07:47:19 51°13.635 2°56.018 126.4 -999 170 -999
2012-01-09 07:47:24 51°13.635 2°56.018 126.4 -999 32 7.5
2012-01-09 07:47:29 51°13.635 2°56.018 126.4 0.1 185 7.5
2012-01-09 07:47:34 51°13.635 2°56.018 126.4 0.1 179 -999
2012-01-09 07:47:39 51°13.635 2°56.018 126.3 0.1 181 -999
2012-01-09 07:47:44 51°13.635 2°56.018 126.1 0.1 190 -999
2012-01-09 07:47:49 51°13.635 2°56.018 126.1 -999 182 -999
2012-01-09 07:47:54 51°13.635 2°56.018 126.1 0.1 21 5.6
2012-01-09 07:47:59 51°13.635 2°56.018 126.1 -999 31 -999
2012-01-09 07:48:04 51°13.636 2°56.018 126.1 -999 13 -999
2012-01-09 07:48:09 51°13.636 2°56.018 126 -999 18 -999
2012-01-09 07:48:14 51°13.636 2°56.018 126 0.1 195 -999
2012-01-09 07:48:19 51°13.636 2°56.018 126 -999 153 -999
2012-01-09 07:48:24 51°13.636 2°56.018 126 0.1 182 -999
2012-01-09 07:48:29 51°13.636 2°56.018 126 0.1 14 -999
2012-01-09 07:48:34 51°13.636 2°56.019 126 0.2 21 7.7
2012-01-09 07:48:39 51°13.636 2°56.019 125.9 0.1 37 -999
2012-01-09 07:48:44 51°13.636 2°56.019 125.7 0.1 39 7.4
2012-01-09 07:48:49 51°13.636 2°56.019 125.2 0.1 53 7.4
2012-01-09 07:48:54 51°13.636 2°56.019 124.3 -999 149 -999
2012-01-09 07:48:59 51°13.636 2°56.019 123.5 0.1 174 7.3
2012-01-09 07:49:04 51°13.636 2°56.019 122.7 -999 181 -999
2012-01-09 07:49:09 51°13.636 2°56.019 122.2 0.1 195 7.4
2012-01-09 07:49:13 51°13.636 2°56.019 121.9 -999 188 7.4
2012-01-09 07:49:19 51°13.635 2°56.019 121.4 0.1 186 7.4
2012-01-09 07:49:24 51°13.635 2°56.019 120.9 -999 207 7.4
2012-01-09 07:49:29 51°13.635 2°56.019 120.3 -999 186 -999
2012-01-09 07:49:34 51°13.636 2°56.019 119.8 -999 352 -999
2012-01-09 07:49:39 51°13.636 2°56.019 119.1 0.1 353 -999
2012-01-09 07:49:44 51°13.636 2°56.019 118.5 0.1 348 -999
2012-01-09 07:49:49 51°13.635 2°56.019 117.9 -999 188 -999
2012-01-09 07:49:54 51°13.635 2°56.019 117.4 -999 176 7.6
2012-01-09 07:49:59 51°13.635 2°56.019 116.8 -999 182 -999
2012-01-09 07:50:04 51°13.635 2°56.019 116 0.1 190 -999
2012-01-09 07:50:09 51°13.635 2°56.019 115.4 0.1 186 -999
2012-01-09 07:50:14 51°13.635 2°56.019 114.6 -999 194 -999
2012-01-09 07:50:19 51°13.635 2°56.019 113.9 -999 334 -999
2012-01-09 07:50:24 51°13.635 2°56.019 113.1 -999 191 7.9
2012-01-09 07:50:29 51°13.635 2°56.019 112.5 0.1 187 -999
2012-01-09 07:50:34 51°13.635 2°56.018 111.9 -999 199 -999
2012-01-09 07:50:39 51°13.634 2°56.018 111.2 0.1 187 7.9
2012-01-09 07:50:44 51°13.634 2°56.018 110.4 -999 199 -999
2012-01-09 07:50:49 51°13.634 2°56.018 109.7 0.1 184 7.8
2012-01-09 07:50:54 51°13.634 2°56.018 109 -999 202 -999
2012-01-09 07:50:59 51°13.634 2°56.018 108.2 -999 338 8
2012-01-09 07:51:04 51°13.634 2°56.018 107.6 0.1 187 7.9
2012-01-09 07:51:09 51°13.634 2°56.018 106.9 -999 212 7.9
2012-01-09 07:51:13 51°13.634 2°56.018 106.3 0.1 312 7.9
2012-01-09 07:51:18 51°13.635 2°56.017 105.8 0.4 297 7.9
2012-01-09 07:51:24 51°13.635 2°56.015 105.7 0.9 296 7.8
2012-01-09 07:51:28 51°13.636 2°56.012 105.7 1.5 290 8.2
2012-01-09 07:51:33 51°13.637 2°56.008 105.8 2 295 7.8
2012-01-09 07:51:37 51°13.638 2°56.004 105.8 2.4 291 7.8
2012-01-09 07:51:43 51°13.64 2°55.997 105.4 2.8 290 -999
2012-01-09 07:51:49 51°13.641 2°55.989 105.1 3.1 289 -999
2012-01-09 07:51:54 51°13.643 2°55.982 105 3.4 290 -999
2012-01-09 07:51:59 51°13.645 2°55.974 105 3.6 289 -999
2012-01-09 07:52:04 51°13.647 2°55.966 105.1 3.9 290 -999
2012-01-09 07:52:09 51°13.648 2°55.958 105.2 4 290 -999
2012-01-09 07:52:14 51°13.65 2°55.949 105.2 4 288 -999
2012-01-09 07:52:19 51°13.652 2°55.941 105.1 4 288 -999
2012-01-09 07:52:24 51°13.653 2°55.932 104.8 4.1 288 -999
2012-01-09 07:52:29 51°13.655 2°55.924 104.8 4 287 -999
2012-01-09 07:52:34 51°13.656 2°55.915 105.1 4 288 -999
2012-01-09 07:52:39 51°13.658 2°55.907 105.6 4 288 -999
2012-01-09 07:52:44 51°13.66 2°55.898 106.6 4 289 -999
2012-01-09 07:52:49 51°13.662 2°55.89 107.6 4 289 -999
2012-01-09 07:52:54 51°13.664 2°55.881 109 4.1 289 -999
2012-01-09 07:52:59 51°13.666 2°55.873 110 4.2 291 -999
2012-01-09 07:53:04 51°13.668 2°55.864 110.9 4.2 291 -999
2012-01-09 07:53:09 51°13.671 2°55.855 111.9 4.3 294 -999
2012-01-09 07:53:14 51°13.674 2°55.847 112.8 4.4 295 -999
2012-01-09 07:53:19 51°13.676 2°55.838 113.6 4.4 296 -999
2012-01-09 07:53:24 51°13.679 2°55.829 114.5 4.4 297 -999
2012-01-09 07:53:29 51°13.682 2°55.82 115.5 4.4 297 -999
2012-01-09 07:53:34 51°13.685 2°55.812 116.5 4.4 298 -999
2012-01-09 07:53:39 51°13.688 2°55.803 117.7 4.4 300 -999
2012-01-09 07:53:44 51°13.691 2°55.795 118.8 4.4 300 -999
2012-01-09 07:53:49 51°13.694 2°55.787 120 4.3 301 -999
2012-01-09 07:53:54 51°13.697 2°55.779 121.3 4.3 302 -999
2012-01-09 07:53:59 51°13.701 2°55.771 122.6 4.3 304 -999
2012-01-09 07:54:04 51°13.704 2°55.763 124.1 4.3 305 -999
2012-01-09 07:54:09 51°13.708 2°55.755 125.8 4.3 306 -999
2012-01-09 07:54:14 51°13.712 2°55.748 127.5 4.3 308 -999
2012-01-09 07:54:19 51°13.716 2°55.741 129.1 4.3 310 -999
2012-01-09 07:54:24 51°13.72 2°55.734 130.9 4.3 312 -999
2012-01-09 07:54:29 51°13.724 2°55.727 132.9 4.3 314 -999
2012-01-09 07:54:34 51°13.728 2°55.72 134.9 4.3 314 -999
2012-01-09 07:54:39 51°13.732 2°55.713 136.8 4.3 316 -999
2012-01-09 07:54:44 51°13.736 2°55.707 138.7 4.2 318 -999
2012-01-09 07:54:49 51°13.741 2°55.701 140.8 4.2 319 -999
2012-01-09 07:54:54 51°13.745 2°55.695 142.7 4.2 321 -999
2012-01-09 07:54:59 51°13.75 2°55.69 144.7 4.2 324 -999
2012-01-09 07:55:04 51°13.755 2°55.684 146.7 4.3 325 -999
2012-01-09 07:55:09 51°13.76 2°55.679 148.5 4.4 327 -999
2012-01-09 07:55:14 51°13.765 2°55.674 150.4 4.5 328 -999
2012-01-09 07:55:19 51°13.771 2°55.668 152.4 4.6 330 -999
2012-01-09 07:55:24 51°13.777 2°55.664 154.4 4.8 332 -999
2012-01-09 07:55:29 51°13.783 2°55.659 156.6 4.9 335 -999
2012-01-09 07:55:34 51°13.79 2°55.655 158.6 5 336 -999
2012-01-09 07:55:39 51°13.797 2°55.651 160.5 5.2 339 -999
2012-01-09 07:55:44 51°13.803 2°55.647 162.7 5.2 342 -999
2012-01-09 07:55:49 51°13.811 2°55.644 165 5.3 344 -999
2012-01-09 07:55:54 51°13.818 2°55.641 167.4 5.4 347 -999
2012-01-09 07:55:59 51°13.825 2°55.639 169.8 5.5 350 -999
2012-01-09 07:56:04 51°13.833 2°55.638 172 5.5 352 -999
2012-01-09 07:56:09 51°13.841 2°55.636 174.2 5.6 354 -999
2012-01-09 07:56:14 51°13.848 2°55.635 176 5.5 355 -999
2012-01-09 07:56:19 51°13.856 2°55.634 177.8 5.4 356 -999
2012-01-09 07:56:24 51°13.863 2°55.634 179.3 5.4 359 -999
2012-01-09 07:56:29 51°13.871 2°55.634 180.8 5.4 -999 -999
2012-01-09 07:56:34 51°13.878 2°55.634 182.1 5.3 1 -999
2012-01-09 07:56:39 51°13.885 2°55.635 183.4 5.3 3 -999
2012-01-09 07:56:44 51°13.892 2°55.636 185 5.2 5 -999
2012-01-09 07:56:49 51°13.899 2°55.636 186.6 5.1 5 -999
2012-01-09 07:56:54 51°13.906 2°55.638 187.9 5.1 7 -999
2012-01-09 07:56:59 51°13.913 2°55.64 189.5 5 9 -999
2012-01-09 07:57:04 51°13.92 2°55.642 191 4.9 10 -999
2012-01-09 07:57:09 51°13.926 2°55.644 192.5 4.8 12 -999
2012-01-09 07:57:14 51°13.932 2°55.646 193.8 4.5 12 -999
2012-01-09 07:57:19 51°13.938 2°55.649 194.8 4.4 15 -999
2012-01-09 07:57:24 51°13.943 2°55.651 196.4 4.3 16 -999
2012-01-09 07:57:29 51°13.949 2°55.654 197.8 4.2 17 -999
2012-01-09 07:57:34 51°13.954 2°55.657 199.1 4.1 19 -999
2012-01-09 07:57:39 51°13.959 2°55.659 200.5 3.8 19 -999
2012-01-09 07:57:44 51°13.964 2°55.662 201.8 3.5 20 -999
2012-01-09 07:57:49 51°13.967 2°55.665 203.3 3 23 -999
2012-01-09 07:57:54 51°13.97 2°55.666 205.3 1.9 19 -999
2012-01-09 07:57:59 51°13.971 2°55.666 208.1 0.8 12 -999
2012-01-09 07:58:04 51°13.971 2°55.665 213.1 0.5 289 -999
2012-01-09 07:58:09 51°13.97 2°55.664 219.9 0.8 248 -999
2012-01-09 07:58:14 51°13.969 2°55.661 225.9 1.2 247 -999
2012-01-09 07:58:19 51°13.969 2°55.658 234 1.5 251 9
2012-01-09 07:58:24 51°13.968 2°55.654 241 1.7 254 -999
2012-01-09 07:58:29 51°13.967 2°55.65 247.2 1.9 258 -999
2012-01-09 07:58:34 51°13.967 2°55.645 254.2 2.1 262 -999
2012-01-09 07:58:39 51°13.967 2°55.64 260 2.3 269 -999
2012-01-09 07:58:44 51°13.967 2°55.635 265.9 2.4 275 -999
2012-01-09 07:58:49 51°13.968 2°55.629 271.7 2.6 278 -999
2012-01-09 07:58:54 51°13.969 2°55.623 276.1 2.7 283 -999
2012-01-09 07:58:59 51°13.97 2°55.617 280.5 2.8 289 -999
2012-01-09 07:59:04 51°13.972 2°55.612 287.2 2.9 297 -999
2012-01-09 07:59:09 51°13.974 2°55.606 294.5 3 302 -999
2012-01-09 07:59:14 51°13.977 2°55.6 299.3 3.2 308 -999
2012-01-09 07:59:19 51°13.98 2°55.595 304.9 3.4 311 9.6
2012-01-09 07:59:24 51°13.984 2°55.589 309.7 3.6 316 9.6
2012-01-09 07:59:29 51°13.988 2°55.583 313.7 3.7 317 -999
2012-01-09 07:59:34 51°13.992 2°55.578 316.5 3.9 321 -999
2012-01-09 07:59:39 51°13.997 2°55.572 319.3 4.3 323 9.6
2012-01-09 07:59:44 51°14.003 2°55.566 320.8 4.6 324 9.6
2012-01-09 07:59:49 51°14.008 2°55.559 321.7 5 323 9.6
2012-01-09 07:59:53 51°14.013 2°55.554 322.3 5.3 325 9.6
2012-01-09 07:59:58 51°14.02 2°55.547 323.1 5.6 326 9.6
2012-01-09 08:00:03 51°14.026 2°55.54 323.4 5.9 326 9.6
2012-01-09 08:00:08 51°14.034 2°55.533 323.9 6.2 327 9.6
2012-01-09 08:00:13 51°14.041 2°55.525 324.5 6.4 327 9.6
2012-01-09 08:00:18 51°14.049 2°55.517 324.6 6.6 327 9.6
2012-01-09 08:00:23 51°14.057 2°55.509 324.8 6.8 328 -999
2012-01-09 08:00:28 51°14.066 2°55.501 325.2 7 328 9.6
2012-01-09 08:00:33 51°14.074 2°55.492 326.1 7.2 329 9.7
2012-01-09 08:00:38 51°14.083 2°55.483 326.6 7.4 327 9.6
2012-01-09 08:00:43 51°14.092 2°55.474 326.3 7.7 328 -999
2012-01-09 08:00:49 51°14.103 2°55.462 326 8 326 -999
2012-01-09 08:00:54 51°14.113 2°55.452 326.1 8.2 328 -999
2012-01-09 08:00:59 51°14.122 2°55.442 326.7 8.3 327 -999
2012-01-09 08:01:04 51°14.133 2°55.432 326.8 8.5 328 -999
2012-01-09 08:01:09 51°14.143 2°55.422 327.4 8.6 328 -999
2012-01-09 08:01:14 51°14.153 2°55.413 327.4 8.7 328 -999
2012-01-09 08:01:19 51°14.164 2°55.403 327 8.8 328 -999
2012-01-09 08:01:24 51°14.174 2°55.393 327.4 8.8 328 -999
2012-01-09 08:01:29 51°14.185 2°55.382 327.7 8.9 328 -999
2012-01-09 08:01:34 51°14.195 2°55.372 327.8 8.9 329 -999
2012-01-09 08:01:39 51°14.206 2°55.362 327.8 8.9 328 -999
2012-01-09 08:01:44 51°14.216 2°55.352 327.6 9 328 -999
2012-01-09 08:01:49 51°14.227 2°55.341 327.4 9.1 328 -999
2012-01-09 08:01:54 51°14.238 2°55.33 328.4 9.3 330 -999
2012-01-09 08:01:59 51°14.249 2°55.32 329.3 9.4 330 -999
2012-01-09 08:02:04 51°14.261 2°55.309 329.6 9.5 330 -999
2012-01-09 08:02:09 51°14.272 2°55.297 328.7 9.6 328 -999
2012-01-09 08:02:14 51°14.283 2°55.286 328.5 9.7 329 9.3
2012-01-09 08:02:19 51°14.295 2°55.275 328.9 9.8 330 9.5
2012-01-09 08:02:24 51°14.307 2°55.264 329.7 10 331 -999
2012-01-09 08:02:29 51°14.319 2°55.252 328.9 10.1 328 -999
2012-01-09 08:02:34 51°14.331 2°55.24 328.1 10.2 328 -999
2012-01-09 08:02:39 51°14.343 2°55.229 328.5 10.3 329 -999
2012-01-09 08:02:44 51°14.355 2°55.217 328.9 10.4 330 -999
2012-01-09 08:02:49 51°14.368 2°55.205 328.4 10.4 328 -999
2012-01-09 08:02:54 51°14.38 2°55.194 328.6 10.5 331 -999
2012-01-09 08:02:59 51°14.393 2°55.182 329.9 10.6 331 -999
2012-01-09 08:03:04 51°14.406 2°55.171 329.6 10.6 330 -999
2012-01-09 08:03:09 51°14.419 2°55.16 329.6 10.6 331 -999
2012-01-09 08:03:14 51°14.432 2°55.149 330.6 10.7 331 -999
2012-01-09 08:03:19 51°14.445 2°55.136 329.7 10.8 329 -999
2012-01-09 08:03:24 51°14.458 2°55.123 328.1 10.8 328 -999
2012-01-09 08:03:29 51°14.47 2°55.11 327.3 10.8 328 -999
2012-01-09 08:03:34 51°14.483 2°55.098 327.7 10.9 329 -999
2012-01-09 08:03:39 51°14.496 2°55.085 328 10.9 328 -999
2012-01-09 08:03:44 51°14.509 2°55.072 327.6 11 328 -999
2012-01-09 08:03:49 51°14.522 2°55.059 328.2 10.9 329 10.1
2012-01-09 08:03:54 51°14.534 2°55.046 328.3 10.9 327 10.3
2012-01-09 08:03:58 51°14.544 2°55.035 327.3 10.8 325 10.7
2012-01-09 08:04:04 51°14.559 2°55.017 325.9 10.9 324 10.9
2012-01-09 08:04:09 51°14.571 2°55.003 325.2 11 323 10.7
2012-01-09 08:04:13 51°14.581 2°54.99 324.7 11.1 323 10.7
2012-01-09 08:04:18 51°14.593 2°54.975 324.4 11.3 322 11
2012-01-09 08:04:23 51°14.606 2°54.96 324.8 11.4 322 11.2
2012-01-09 08:04:28 51°14.618 2°54.944 325 11.5 322 11
2012-01-09 08:04:33 51°14.631 2°54.928 323.9 11.7 321 11.1
2012-01-09 08:04:37 51°14.641 2°54.915 324.1 11.7 322 11.3
2012-01-09 08:04:42 51°14.654 2°54.9 325.1 11.8 323 11.1
2012-01-09 08:04:47 51°14.667 2°54.883 325.2 11.9 321 10.8
2012-01-09 08:04:52 51°14.68 2°54.867 324.8 11.9 322 10.7
2012-01-09 08:04:57 51°14.693 2°54.85 325.2 11.9 321 10.9
2012-01-09 08:05:01 51°14.703 2°54.837 324.8 12 322 10.9
2012-01-09 08:05:06 51°14.716 2°54.822 325.9 11.9 323 10.6
2012-01-09 08:05:11 51°14.729 2°54.805 326.3 12 322 10.9
2012-01-09 08:05:16 51°14.742 2°54.789 325.9 11.9 322 10.3
2012-01-09 08:05:21 51°14.755 2°54.774 325.4 11.8 322 10.6
2012-01-09 08:05:25 51°14.766 2°54.761 326.7 11.9 324 10.7
2012-01-09 08:05:31 51°14.782 2°54.742 327.4 11.9 324 10.7
2012-01-09 08:05:35 51°14.793 2°54.73 327.7 12 324 10.9
2012-01-09 08:05:41 51°14.809 2°54.711 328 12 324 10.8
2012-01-09 08:05:45 51°14.82 2°54.699 328.2 12 324 10.9
2012-01-09 08:05:51 51°14.836 2°54.681 328.4 12.1 325 11
2012-01-09 08:05:56 51°14.85 2°54.666 328.4 12 326 -999
2012-01-09 08:06:01 51°14.863 2°54.651 328.6 12 325 -999
2012-01-09 08:06:07 51°14.88 2°54.634 329.2 12 327 -999
2012-01-09 08:06:13 51°14.897 2°54.616 330.3 11.8 327 -999
2012-01-09 08:06:18 51°14.91 2°54.601 330.6 11.8 326 -999
2012-01-09 08:06:24 51°14.927 2°54.583 330.7 11.9 326 -999
2012-01-09 08:06:29 51°14.94 2°54.568 329 11.8 324 -999
2012-01-09 08:06:34 51°14.952 2°54.551 327.1 11.7 322 10.7
2012-01-09 08:06:39 51°14.965 2°54.534 326.2 11.8 320 10.9
2012-01-09 08:06:44 51°14.976 2°54.516 325 11.8 315 10.6
2012-01-09 08:06:49 51°14.987 2°54.496 321.3 11.8 311 10.7
2012-01-09 08:06:53 51°14.995 2°54.479 317 11.8 309 10.6
2012-01-09 08:06:58 51°15.004 2°54.458 313.3 11.8 306 10.8
2012-01-09 08:07:03 51°15.013 2°54.435 310.3 11.9 303 10.7
2012-01-09 08:07:08 51°15.021 2°54.412 307.1 11.9 299 10.7
2012-01-09 08:07:13 51°15.028 2°54.389 303.8 11.9 297 10.7
2012-01-09 08:07:17 51°15.034 2°54.369 300.6 12 295 10.4
2012-01-09 08:07:22 51°15.04 2°54.345 297.7 11.9 293 10.3
2012-01-09 08:07:27 51°15.047 2°54.321 296.1 11.9 294 9.6
2012-01-09 08:07:32 51°15.053 2°54.297 296.1 11.9 292 8.1
2012-01-09 08:07:37 51°15.059 2°54.272 295.9 11.8 292 8
2012-01-09 08:07:42 51°15.064 2°54.248 294.9 11.8 290 7.9
2012-01-09 08:07:46 51°15.069 2°54.228 293.9 11.8 290 8
2012-01-09 08:07:51 51°15.074 2°54.204 293.3 11.8 289 8.1
2012-01-09 08:07:56 51°15.079 2°54.179 292.2 12 288 8.3
2012-01-09 08:08:01 51°15.085 2°54.153 291.9 12 288 8.3
2012-01-09 08:08:06 51°15.089 2°54.128 291.8 12 287 8.7
2012-01-09 08:08:11 51°15.094 2°54.102 290.9 12.1 286 8.6
2012-01-09 08:08:16 51°15.098 2°54.076 289.3 12.2 284 8.6
2012-01-09 08:08:21 51°15.102 2°54.05 288 12.2 283 8.7
2012-01-09 08:08:25 51°15.105 2°54.029 286.3 12.2 282 8.8
2012-01-09 08:08:31 51°15.109 2°53.997 286.1 12.3 283 8.7
2012-01-09 08:08:36 51°15.114 2°53.97 286.8 12.3 284 8.6
2012-01-09 08:08:41 51°15.118 2°53.944 287.9 12.3 286 8.5
2012-01-09 08:08:45 51°15.122 2°53.924 288.7 12.2 287 8.7
2012-01-09 08:08:51 51°15.128 2°53.892 289.8 12.2 287 8.9
2012-01-09 08:08:56 51°15.133 2°53.866 290.9 12.3 287 8.7
2012-01-09 08:09:01 51°15.138 2°53.84 291.3 12.3 288 8.7
2012-01-09 08:09:05 51°15.143 2°53.82 291.6 12.2 288 9.1
2012-01-09 08:09:11 51°15.149 2°53.789 291.7 12.3 288 9.1
2012-01-09 08:09:16 51°15.154 2°53.763 291.2 12.2 287 9.1
2012-01-09 08:09:21 51°15.159 2°53.738 291.1 12.2 288 9.2
2012-01-09 08:09:25 51°15.163 2°53.717 291.4 12.2 288 9.2
2012-01-09 08:09:31 51°15.17 2°53.687 291.8 12.2 288 9.2
2012-01-09 08:09:36 51°15.175 2°53.661 292 12.2 288 9.1
2012-01-09 08:09:41 51°15.18 2°53.635 291.9 12.2 288 9.2
2012-01-09 08:09:45 51°15.184 2°53.615 291.7 12.2 288 9.5
2012-01-09 08:09:51 51°15.19 2°53.584 291.6 12.2 288 9.3
2012-01-09 08:09:55 51°15.194 2°53.563 291.1 12.2 288 9.1
2012-01-09 08:10:01 51°15.2 2°53.532 290.7 12.1 287 9.2
2012-01-09 08:10:05 51°15.204 2°53.511 290.4 12.2 286 9.5
2012-01-09 08:10:11 51°15.209 2°53.48 289.9 12.2 285 9.4
2012-01-09 08:10:16 51°15.213 2°53.454 289.5 12.2 285 9.4
2012-01-09 08:10:21 51°15.217 2°53.427 287.4 12.2 282 9.6
2012-01-09 08:10:26 51°15.22 2°53.401 284.8 12.2 280 9.5
2012-01-09 08:10:31 51°15.222 2°53.373 282.9 12.3 278 9.6
2012-01-09 08:10:35 51°15.224 2°53.352 281.3 12.3 277 9.5
2012-01-09 08:10:41 51°15.226 2°53.319 280.2 12.3 276 9.7
2012-01-09 08:10:45 51°15.227 2°53.297 278.7 12.4 274 9.8
2012-01-09 08:10:51 51°15.228 2°53.264 277.3 12.4 274 9.8
2012-01-09 08:10:56 51°15.229 2°53.237 276.7 12.4 274 9.8
2012-01-09 08:11:01 51°15.23 2°53.209 276.2 12.4 273 9.9
2012-01-09 08:11:05 51°15.231 2°53.187 276.4 12.4 273 10
2012-01-09 08:11:11 51°15.232 2°53.154 276.1 12.5 273 9.9
2012-01-09 08:11:16 51°15.233 2°53.127 276.3 12.5 273 9.9
2012-01-09 08:11:21 51°15.233 2°53.099 275.6 12.5 272 10
2012-01-09 08:11:25 51°15.233 2°53.077 274.4 12.5 271 9.9
2012-01-09 08:11:31 51°15.234 2°53.044 274.4 12.5 271 10
2012-01-09 08:11:36 51°15.234 2°53.016 274.3 12.5 271 10.1
2012-01-09 08:11:41 51°15.234 2°52.989 273.9 12.4 272 10
2012-01-09 08:11:45 51°15.235 2°52.967 274 12.5 272 9.9
2012-01-09 08:11:51 51°15.236 2°52.934 274.7 12.5 273 10
2012-01-09 08:11:56 51°15.237 2°52.906 274.9 12.4 273 10.1
2012-01-09 08:12:01 51°15.238 2°52.879 275.2 12.4 274 10.1
2012-01-09 08:12:05 51°15.239 2°52.857 276.7 12.4 275 10.2
2012-01-09 08:12:11 51°15.241 2°52.824 277.5 12.5 276 10.2
2012-01-09 08:12:16 51°15.243 2°52.797 279 12.4 276 10.2
2012-01-09 08:12:21 51°15.245 2°52.769 279.8 12.4 277 10.3
2012-01-09 08:12:26 51°15.247 2°52.742 280.3 12.5 277 10.5
2012-01-09 08:12:31 51°15.25 2°52.715 280.5 12.5 278 10.5
2012-01-09 08:12:35 51°15.252 2°52.693 281.3 12.4 279 10.5
2012-01-09 08:12:41 51°15.255 2°52.661 281.7 12.3 279 10.4
2012-01-09 08:12:45 51°15.257 2°52.639 281.9 12.3 278 10.6
2012-01-09 08:12:51 51°15.26 2°52.606 281.6 12.4 278 10.3
2012-01-09 08:12:56 51°15.262 2°52.579 281.7 12.5 278 10.6
2012-01-09 08:13:01 51°15.264 2°52.552 281.7 12.5 278 10.6
2012-01-09 08:13:05 51°15.266 2°52.53 281.3 12.4 278 10.7
2012-01-09 08:13:11 51°15.269 2°52.497 281 12.5 277 10.8
2012-01-09 08:13:16 51°15.271 2°52.47 280.9 12.5 277 10.7
2012-01-09 08:13:21 51°15.273 2°52.443 280.4 12.4 276 10.6
2012-01-09 08:13:25 51°15.274 2°52.42 279.6 12.6 276 10.8
2012-01-09 08:13:31 51°15.276 2°52.387 279.5 12.6 275 10.9
2012-01-09 08:13:36 51°15.278 2°52.359 278.8 12.5 275 10.9
2012-01-09 08:13:41 51°15.279 2°52.332 278.6 12.5 275 10.9
2012-01-09 08:13:45 51°15.281 2°52.31 278.8 12.5 276 10.7
2012-01-09 08:13:51 51°15.283 2°52.277 278.9 12.5 276 10.9
2012-01-09 08:13:56 51°15.285 2°52.249 279 12.6 276 10.9
2012-01-09 08:14:01 51°15.287 2°52.221 278.9 12.6 276 10.9
2012-01-09 08:14:05 51°15.288 2°52.199 278.8 12.6 275 10.9
2012-01-09 08:14:11 51°15.29 2°52.166 278.4 12.6 276 11.2
2012-01-09 08:14:16 51°15.291 2°52.137 278.8 12.7 275 11.1
2012-01-09 08:14:21 51°15.293 2°52.109 278.7 12.7 276 11.1
2012-01-09 08:14:25 51°15.294 2°52.087 278.7 12.7 276 11.3
2012-01-09 08:14:31 51°15.297 2°52.053 278.8 12.8 275 11.2
2012-01-09 08:14:36 51°15.298 2°52.025 279 12.7 276 11.1
2012-01-09 08:14:41 51°15.3 2°51.997 278.7 12.8 275 11.2
2012-01-09 08:14:45 51°15.3 2°51.974 277.3 12.9 273 11.4
2012-01-09 08:14:51 51°15.302 2°51.94 277 12.9 274 11.4
2012-01-09 08:14:56 51°15.303 2°51.912 276.8 13 273 11.3
2012-01-09 08:15:01 51°15.304 2°51.884 276.6 12.9 273 11.5
2012-01-09 08:15:06 51°15.305 2°51.855 277.1 12.9 273 11.6
2012-01-09 08:15:11 51°15.305 2°51.827 276.5 12.9 271 11.3
2012-01-09 08:15:15 51°15.304 2°51.804 273.6 13 268 11.5
2012-01-09 08:15:21 51°15.304 2°51.77 271.5 13 268 11.5
2012-01-09 08:15:25 51°15.303 2°51.747 270 13 266 11.5
2012-01-09 08:15:31 51°15.3 2°51.713 268.6 13.1 264 11.6
2012-01-09 08:15:36 51°15.298 2°51.684 267.2 13 264 11.5
2012-01-09 08:15:41 51°15.296 2°51.655 266 13.1 263 11.7
2012-01-09 08:15:45 51°15.294 2°51.632 265.7 13.1 264 12
2012-01-09 08:15:51 51°15.292 2°51.598 266.3 13.1 265 11.5
2012-01-09 08:15:56 51°15.29 2°51.569 266.9 13.1 264 11.7
2012-01-09 08:16:01 51°15.289 2°51.54 267.7 13 265 11.8
2012-01-09 08:16:05 51°15.288 2°51.517 268.6 13 266 11.6
2012-01-09 08:16:11 51°15.287 2°51.482 268.6 13.1 266 11.8
2012-01-09 08:16:16 51°15.285 2°51.453 268.7 13.1 266 11.8
2012-01-09 08:16:21 51°15.284 2°51.425 269.1 13 266 11.8
2012-01-09 08:16:25 51°15.282 2°51.402 268.9 13 264 11.9
2012-01-09 08:16:31 51°15.279 2°51.368 266.7 13.1 261 11.9
2012-01-09 08:16:36 51°15.276 2°51.339 264.4 13 261 12
2012-01-09 08:16:41 51°15.273 2°51.311 262.9 13 260 11.8
2012-01-09 08:16:46 51°15.269 2°51.283 261.5 13.1 258 12.1
2012-01-09 08:16:51 51°15.265 2°51.254 260 13.2 258 11.7
2012-01-09 08:16:55 51°15.261 2°51.232 259.2 13.2 256 11.7
2012-01-09 08:17:01 51°15.256 2°51.198 258.2 13.2 255 11.8
2012-01-09 08:17:05 51°15.252 2°51.175 257.4 13.2 255 11.5
2012-01-09 08:17:11 51°15.246 2°51.141 256.9 13.2 254 11.9
2012-01-09 08:17:16 51°15.242 2°51.113 256.8 13.2 256 11.9
2012-01-09 08:17:21 51°15.237 2°51.085 257.2 13.2 255 11.9
2012-01-09 08:17:25 51°15.233 2°51.063 256.8 13.2 255 12
2012-01-09 08:17:31 51°15.227 2°51.029 256.6 13.2 255 12.1
2012-01-09 08:17:36 51°15.222 2°51 256.7 13.2 255 12.2
2012-01-09 08:17:41 51°15.218 2°50.972 257 13.2 255 12
2012-01-09 08:17:46 51°15.213 2°50.944 257 13.2 256 12.1
2012-01-09 08:17:51 51°15.208 2°50.915 257.8 13.2 255 12.3
2012-01-09 08:17:56 51°15.204 2°50.887 257.9 13.3 257 12
2012-01-09 08:18:01 51°15.2 2°50.858 258.5 13.2 257 12
2012-01-09 08:18:05 51°15.197 2°50.836 258.9 13.2 257 12.2
2012-01-09 08:18:11 51°15.192 2°50.802 259.8 13.2 257 12.2
2012-01-09 08:18:16 51°15.189 2°50.773 259.9 13.2 259 12.1
2012-01-09 08:18:21 51°15.185 2°50.745 260.5 13.2 258 12.1
2012-01-09 08:18:25 51°15.183 2°50.722 260.6 13.1 259 11.9
2012-01-09 08:18:31 51°15.178 2°50.688 260.9 13.2 258 12.2
2012-01-09 08:18:36 51°15.174 2°50.659 260.7 13.2 259 12.3
2012-01-09 08:18:41 51°15.171 2°50.631 260.7 13.2 259 12.2
2012-01-09 08:18:46 51°15.167 2°50.602 260.7 13.2 259 12.2
2012-01-09 08:18:51 51°15.163 2°50.574 260.7 13.2 258 12.3
2012-01-09 08:18:56 51°15.16 2°50.545 260.7 13.2 259 12.3
2012-01-09 08:19:01 51°15.156 2°50.516 260.8 13.2 257 12
2012-01-09 08:19:05 51°15.153 2°50.493 260.8 13.2 259 12.5
2012-01-09 08:19:11 51°15.149 2°50.459 260.7 13.2 259 12.3
2012-01-09 08:19:16 51°15.145 2°50.431 261 13.2 258 12.1
2012-01-09 08:19:21 51°15.141 2°50.402 260.4 13.2 257 12.1
2012-01-09 08:19:25 51°15.137 2°50.38 258.8 13.1 255 12.3
2012-01-09 08:19:31 51°15.131 2°50.346 256.9 13.2 255 12.2
2012-01-09 08:19:36 51°15.126 2°50.319 256.2 13.1 254 12.2
2012-01-09 08:19:41 51°15.121 2°50.291 255.1 13.1 253 12.4
2012-01-09 08:19:45 51°15.117 2°50.269 254.9 13.1 253 12.1
2012-01-09 08:19:51 51°15.111 2°50.235 254.6 13.1 254 12.4
2012-01-09 08:19:55 51°15.106 2°50.213 255 13.2 253 12.4
2012-01-09 08:20:01 51°15.1 2°50.18 255.2 13.2 254 12.1
2012-01-09 08:20:05 51°15.096 2°50.157 254.9 13.2 253 12.2
2012-01-09 08:20:11 51°15.089 2°50.124 254.6 13.2 253 12.3
2012-01-09 08:20:16 51°15.084 2°50.096 255 13.2 253 12.3
2012-01-09 08:20:21 51°15.079 2°50.068 255.3 13.2 254 12.2
2012-01-09 08:20:25 51°15.075 2°50.045 255.9 13.2 255 12.3
2012-01-09 08:20:31 51°15.07 2°50.011 257 13.3 256 12.3
2012-01-09 08:20:36 51°15.066 2°49.983 258.2 13.2 257 12.4
2012-01-09 08:20:41 51°15.062 2°49.954 259.2 13.2 258 12.3
2012-01-09 08:20:45 51°15.059 2°49.931 260.7 13.2 259 12.3
2012-01-09 08:20:51 51°15.055 2°49.897 260.9 13.2 259 12.3
2012-01-09 08:20:56 51°15.051 2°49.869 261.8 13.2 260 12.2
2012-01-09 08:21:01 51°15.048 2°49.84 261.9 13.3 259 12.4
2012-01-09 08:21:05 51°15.046 2°49.817 262.6 13.2 261 12.2
2012-01-09 08:21:11 51°15.042 2°49.782 262.9 13.3 260 12.6
2012-01-09 08:21:16 51°15.039 2°49.754 262.9 13.1 261 12.5
2012-01-09 08:21:21 51°15.037 2°49.725 263.8 13.1 262 12.4
2012-01-09 08:21:25 51°15.035 2°49.702 265.4 13 264 12.2
2012-01-09 08:21:31 51°15.033 2°49.668 266.3 13 263 12.4
2012-01-09 08:21:36 51°15.031 2°49.639 266.8 13 264 12.3
2012-01-09 08:21:41 51°15.029 2°49.611 266.9 13 264 12.3
2012-01-09 08:21:45 51°15.028 2°49.588 267.4 12.9 265 12.3
2012-01-09 08:21:51 51°15.027 2°49.554 267.9 12.9 266 12.3
2012-01-09 08:21:55 51°15.025 2°49.532 268.4 12.8 265 12.2
2012-01-09 08:22:01 51°15.024 2°49.498 268.3 12.8 265 12.4
2012-01-09 08:22:05 51°15.023 2°49.476 268.1 12.7 266 12.5
2012-01-09 08:22:11 51°15.021 2°49.442 267.7 12.8 265 12.4
2012-01-09 08:22:16 51°15.019 2°49.414 267.2 12.8 264 12.5
2012-01-09 08:22:21 51°15.018 2°49.386 267.2 12.7 266 12.5
2012-01-09 08:22:25 51°15.016 2°49.363 267.5 12.8 264 12.5
2012-01-09 08:22:31 51°15.015 2°49.33 267.8 12.7 267 12.2
2012-01-09 08:22:36 51°15.014 2°49.301 269.4 12.7 267 12.3
2012-01-09 08:22:41 51°15.013 2°49.273 270.8 12.7 269 12.5
2012-01-09 08:22:45 51°15.014 2°49.251 272.3 12.8 269 12.3
2012-01-09 08:22:51 51°15.014 2°49.217 272.8 12.7 270 12.2
2012-01-09 08:22:56 51°15.014 2°49.189 273.2 12.7 270 12.5
2012-01-09 08:23:01 51°15.014 2°49.161 273.9 12.7 271 12.3
2012-01-09 08:23:05 51°15.014 2°49.139 273.6 12.8 270 12.2
2012-01-09 08:23:11 51°15.014 2°49.105 273.4 12.8 271 12.3
2012-01-09 08:23:16 51°15.014 2°49.077 273.7 12.7 270 12.2
2012-01-09 08:23:21 51°15.014 2°49.049 273.2 12.7 271 12.1
2012-01-09 08:23:26 51°15.014 2°49.021 273.4 12.7 270 12.3
2012-01-09 08:23:31 51°15.014 2°48.993 273.5 12.7 270 12.1
2012-01-09 08:23:35 51°15.014 2°48.97 273 12.7 269 12.1
2012-01-09 08:23:41 51°15.014 2°48.937 272.9 12.6 270 12.1
2012-01-09 08:23:45 51°15.013 2°48.915 272.4 12.7 269 12.3
2012-01-09 08:23:51 51°15.013 2°48.881 272 12.7 269 12.2
2012-01-09 08:23:56 51°15.013 2°48.853 272.1 12.7 269 12.3
2012-01-09 08:24:01 51°15.012 2°48.824 271.8 12.7 269 12.2
2012-01-09 08:24:05 51°15.012 2°48.802 272 12.7 269 12.3
2012-01-09 08:24:11 51°15.011 2°48.768 272.1 12.7 269 12.2
2012-01-09 08:24:16 51°15.011 2°48.74 271.7 12.7 269 11.9
2012-01-09 08:24:21 51°15.01 2°48.712 271.6 12.7 268 12.2
2012-01-09 08:24:26 51°15.01 2°48.684 271.3 12.7 269 12.2
2012-01-09 08:24:31 51°15.009 2°48.656 271.1 12.7 268 12.1
2012-01-09 08:24:36 51°15.009 2°48.628 270.8 12.7 268 12.1
2012-01-09 08:24:41 51°15.008 2°48.6 271 12.7 268 12.2
2012-01-09 08:24:45 51°15.008 2°48.577 271.2 12.7 269 12
2012-01-09 08:24:51 51°15.007 2°48.543 271.5 12.7 269 12.2
2012-01-09 08:24:56 51°15.006 2°48.515 271.4 12.6 268 12.3
2012-01-09 08:25:01 51°15.006 2°48.487 271.4 12.7 268 12.5
2012-01-09 08:25:05 51°15.005 2°48.465 270.8 12.7 268 12.3
2012-01-09 08:25:11 51°15.004 2°48.431 270.5 12.7 268 12.4
2012-01-09 08:25:16 51°15.003 2°48.403 270.2 12.7 266 12.6
2012-01-09 08:25:21 51°15.002 2°48.375 269.8 12.7 267 12.4
2012-01-09 08:25:25 51°15.001 2°48.353 269.4 12.7 266 12.5
2012-01-09 08:25:31 51°15 2°48.319 269 12.7 267 12.6
2012-01-09 08:25:36 51°14.998 2°48.291 268.8 12.7 265 12.5
2012-01-09 08:25:41 51°14.997 2°48.264 267.9 12.7 266 12.5
2012-01-09 08:25:45 51°14.995 2°48.241 267.9 12.7 264 12.6
2012-01-09 08:25:51 51°14.994 2°48.207 267.4 12.7 265 12.5
2012-01-09 08:25:56 51°14.992 2°48.179 267.5 12.6 265 12.4
2012-01-09 08:26:01 51°14.99 2°48.151 267.1 12.8 264 12.8
2012-01-09 08:26:05 51°14.989 2°48.129 267.1 12.8 265 12.7
2012-01-09 08:26:11 51°14.987 2°48.095 267.1 12.8 264 12.8
2012-01-09 08:26:16 51°14.985 2°48.067 267 12.8 265 12.5
2012-01-09 08:26:21 51°14.984 2°48.039 267.5 12.7 264 12.7
2012-01-09 08:26:26 51°14.982 2°48.011 267.6 12.7 266 12.6
2012-01-09 08:26:31 51°14.981 2°47.983 267.8 12.7 265 12.7
2012-01-09 08:26:35 51°14.98 2°47.96 268.1 12.7 266 12.6
2012-01-09 08:26:41 51°14.978 2°47.927 268.2 12.8 266 12.6
2012-01-09 08:26:46 51°14.976 2°47.898 268.4 12.8 266 12.6
2012-01-09 08:26:51 51°14.975 2°47.87 268.4 12.8 266 12.6
2012-01-09 08:26:56 51°14.974 2°47.842 268.7 12.8 265 12.7
2012-01-09 08:27:01 51°14.973 2°47.814 268.1 12.8 267 12.5
2012-01-09 08:27:05 51°14.971 2°47.791 268.3 12.8 265 12.7
2012-01-09 08:27:11 51°14.97 2°47.757 268.4 12.8 267 12.7
2012-01-09 08:27:16 51°14.969 2°47.729 269.4 12.8 265 12.6
2012-01-09 08:27:21 51°14.968 2°47.701 269.2 12.8 268 12.5
2012-01-09 08:27:25 51°14.967 2°47.678 270 12.8 267 12.5
2012-01-09 08:27:30 51°14.967 2°47.65 270.4 12.8 268 12.3
2012-01-09 08:27:36 51°14.965 2°47.616 270.4 12.8 267 12.3
2012-01-09 08:27:41 51°14.964 2°47.588 269.9 12.8 267 12.1
2012-01-09 08:27:45 51°14.964 2°47.565 269.9 12.8 266 12.1
2012-01-09 08:27:51 51°14.962 2°47.531 269.6 12.8 267 12.1
2012-01-09 08:27:56 51°14.961 2°47.503 269.8 12.7 267 11.7
2012-01-09 08:28:01 51°14.96 2°47.475 270 12.7 266 11.6
2012-01-09 08:28:06 51°14.959 2°47.447 270 12.8 267 11.5
2012-01-09 08:28:11 51°14.959 2°47.419 270.3 12.7 267 11.4
2012-01-09 08:28:15 51°14.958 2°47.397 270.4 12.6 268 11.2
2012-01-09 08:28:21 51°14.957 2°47.363 270.9 12.8 267 11.3
2012-01-09 08:28:25 51°14.957 2°47.34 270.8 12.7 268 10.6
2012-01-09 08:28:31 51°14.956 2°47.307 271.3 12.7 267 10.7
2012-01-09 08:28:36 51°14.956 2°47.28 271 12.6 269 10.5
2012-01-09 08:28:41 51°14.955 2°47.252 270.8 12.6 268 10.5
2012-01-09 08:28:46 51°14.954 2°47.223 271.3 12.6 268 10
2012-01-09 08:28:51 51°14.954 2°47.196 271.3 12.7 267 10
2012-01-09 08:28:56 51°14.953 2°47.168 271.2 12.6 268 10.2
2012-01-09 08:29:01 51°14.952 2°47.14 271.2 12.5 268 9.8
2012-01-09 08:29:05 51°14.952 2°47.118 271.1 12.5 269 9.6
2012-01-09 08:29:11 51°14.951 2°47.085 271.1 12.5 267 9.6
2012-01-09 08:29:16 51°14.95 2°47.057 270.9 12.6 267 9.5
2012-01-09 08:29:21 51°14.949 2°47.029 270.7 12.6 267 9.1
2012-01-09 08:29:25 51°14.948 2°47.007 270.1 12.6 266 9
2012-01-09 08:29:31 51°14.947 2°46.974 269.5 12.5 266 8.9
2012-01-09 08:29:36 51°14.945 2°46.947 269.6 12.5 265 8.9
2012-01-09 08:29:41 51°14.943 2°46.92 268.9 12.5 264 9.1
2012-01-09 08:29:45 51°14.941 2°46.898 266.5 12.5 261 8.9
2012-01-09 08:29:51 51°14.937 2°46.865 264.3 12.5 260 9.1
2012-01-09 08:29:56 51°14.934 2°46.838 262.9 12.5 260 8.7
2012-01-09 08:30:01 51°14.93 2°46.811 261.1 12.5 256 9
2012-01-09 08:30:05 51°14.927 2°46.789 260.5 12.5 257 8.9
2012-01-09 08:30:11 51°14.922 2°46.757 259.5 12.5 257 8.8
2012-01-09 08:30:16 51°14.918 2°46.73 259 12.6 256 8.7
2012-01-09 08:30:21 51°14.913 2°46.703 258.3 12.7 255 8.8
2012-01-09 08:30:25 51°14.91 2°46.681 257.4 12.6 255 8.7
2012-01-09 08:30:31 51°14.904 2°46.649 257 12.6 254 8.6
2012-01-09 08:30:36 51°14.899 2°46.622 255.9 12.6 255 8.8
2012-01-09 08:30:41 51°14.894 2°46.596 256.3 12.6 253 8.9
2012-01-09 08:30:46 51°14.889 2°46.568 256 12.7 254 8.8
2012-01-09 08:30:51 51°14.885 2°46.542 256.3 12.6 254 8.9
2012-01-09 08:30:55 51°14.881 2°46.52 257 12.5 255 8.6
2012-01-09 08:31:01 51°14.875 2°46.488 256.3 12.6 254 8.7
2012-01-09 08:31:05 51°14.869 2°46.467 254.7 12.7 249 8.7
2012-01-09 08:31:11 51°14.861 2°46.436 251.2 12.7 247 8.8
2012-01-09 08:31:16 51°14.853 2°46.41 248.3 12.7 245 8.7
2012-01-09 08:31:21 51°14.845 2°46.386 245.9 12.7 241 8.6
2012-01-09 08:31:25 51°14.837 2°46.367 241.7 12.7 239 8.8
2012-01-09 08:31:31 51°14.826 2°46.338 240.3 12.7 238 8.7
2012-01-09 08:31:36 51°14.816 2°46.315 238.8 12.6 237 8.4
2012-01-09 08:31:41 51°14.806 2°46.292 237.1 12.7 234 8.8
2012-01-09 08:31:45 51°14.798 2°46.273 235.9 12.8 236 8.6
2012-01-09 08:31:51 51°14.786 2°46.246 235.9 12.7 235 8.5
2012-01-09 08:31:56 51°14.776 2°46.222 236 12.7 235 8.6
2012-01-09 08:32:01 51°14.766 2°46.199 235.2 12.8 235 8.6
2012-01-09 08:32:05 51°14.757 2°46.181 235.2 12.8 235 8.4
2012-01-09 08:32:11 51°14.746 2°46.153 235.2 12.7 236 8.5
2012-01-09 08:32:16 51°14.736 2°46.13 235.6 12.7 235 8.5
2012-01-09 08:32:21 51°14.727 2°46.107 235.8 12.6 237 8.4
2012-01-09 08:32:25 51°14.718 2°46.089 236.3 12.6 234 8.3
2012-01-09 08:32:31 51°14.705 2°46.061 235.2 12.8 236 8.4
2012-01-09 08:32:35 51°14.697 2°46.042 236.4 12.8 237 8.4
2012-01-09 08:32:41 51°14.686 2°46.014 236.9 12.7 235 8.3
2012-01-09 08:32:45 51°14.678 2°45.995 236.4 12.7 238 8.2
2012-01-09 08:32:51 51°14.666 2°45.967 236.8 12.7 235 8.2
2012-01-09 08:32:56 51°14.656 2°45.944 236 12.8 237 8.5
2012-01-09 08:33:01 51°14.647 2°45.921 237 12.6 236 8.2
2012-01-09 08:33:05 51°14.639 2°45.902 236.7 12.6 235 8.5
2012-01-09 08:33:11 51°14.627 2°45.874 236.2 12.7 237 7.9
2012-01-09 08:33:16 51°14.617 2°45.851 237 12.7 236 8.1
2012-01-09 08:33:21 51°14.607 2°45.828 236.8 12.7 237 8.3
2012-01-09 08:33:26 51°14.598 2°45.804 237.4 12.6 237 7.9
2012-01-09 08:33:31 51°14.588 2°45.781 237.1 12.7 236 8
2012-01-09 08:33:36 51°14.579 2°45.757 236.9 12.7 238 8.1
2012-01-09 08:33:41 51°14.569 2°45.734 238.5 12.5 237 8
2012-01-09 08:33:45 51°14.562 2°45.715 238.8 12.5 238 7.9
2012-01-09 08:33:51 51°14.55 2°45.686 237.9 12.8 238 8.1
2012-01-09 08:33:56 51°14.541 2°45.662 239.2 12.8 240 8.3
2012-01-09 08:34:01 51°14.532 2°45.639 240.5 12.5 238 7.8
2012-01-09 08:34:05 51°14.525 2°45.62 238.9 12.6 238 8.1
2012-01-09 08:34:11 51°14.515 2°45.591 239.4 12.7 240 7.9
2012-01-09 08:34:16 51°14.506 2°45.567 240.1 12.7 240 5.9
2012-01-09 08:34:21 51°14.496 2°45.543 240.5 12.5 240 7.8
2012-01-09 08:34:26 51°14.487 2°45.519 240.3 12.7 238 8
2012-01-09 08:34:31 51°14.479 2°45.495 239.8 12.7 240 7.8
2012-01-09 08:34:36 51°14.47 2°45.47 240.9 12.7 240 7.9
2012-01-09 08:34:41 51°14.461 2°45.447 241.5 12.5 240 7.6
2012-01-09 08:34:46 51°14.452 2°45.423 240.1 12.6 239 7.6
2012-01-09 08:34:51 51°14.443 2°45.398 239.3 12.9 239 7.9
2012-01-09 08:34:55 51°14.436 2°45.379 240.2 12.6 239 7.5
2012-01-09 08:35:01 51°14.424 2°45.351 239.4 12.6 238 7.7
2012-01-09 08:35:06 51°14.415 2°45.327 238.8 12.8 240 7.7
2012-01-09 08:35:11 51°14.406 2°45.303 240 12.6 238 7.8
2012-01-09 08:35:15 51°14.399 2°45.284 239.8 12.6 239 5.7
2012-01-09 08:35:21 51°14.389 2°45.255 239.4 12.6 240 7.7
2012-01-09 08:35:26 51°14.38 2°45.231 241 12.6 239 7.6
2012-01-09 08:35:31 51°14.371 2°45.206 240 12.7 240 -999
2012-01-09 08:35:36 51°14.361 2°45.183 239.7 12.8 237 7.8
2012-01-09 08:35:41 51°14.352 2°45.159 239.1 12.7 240 7.5
2012-01-09 08:35:45 51°14.344 2°45.14 239.2 12.8 236 7.6
2012-01-09 08:35:51 51°14.333 2°45.112 237.6 12.6 238 7.3
2012-01-09 08:35:56 51°14.322 2°45.089 236.5 12.7 234 7.6
2012-01-09 08:36:01 51°14.313 2°45.065 235.6 12.8 237 7.7
2012-01-09 08:36:05 51°14.305 2°45.047 236.7 12.7 235 7.5
2012-01-09 08:36:11 51°14.292 2°45.02 235.6 12.5 234 5.7
2012-01-09 08:36:16 51°14.282 2°44.998 234.4 12.7 234 7.4
2012-01-09 08:36:21 51°14.272 2°44.974 233.6 12.9 235 7.4
2012-01-09 08:36:25 51°14.263 2°44.956 234.6 12.7 234 7.4
2012-01-09 08:36:31 51°14.251 2°44.929 234 12.7 234 7.4
2012-01-09 08:36:36 51°14.239 2°44.907 233.5 12.8 231 7.2
2012-01-09 08:36:41 51°14.229 2°44.885 232.5 12.7 234 7.4
2012-01-09 08:36:45 51°14.22 2°44.868 232.8 12.8 230 7.5
2012-01-09 08:36:51 51°14.208 2°44.84 232.4 12.8 235 5.7
2012-01-09 08:36:56 51°14.198 2°44.818 233.8 12.7 232 7.3
2012-01-09 08:37:01 51°14.187 2°44.795 232.5 12.7 235 7.4
2012-01-09 08:37:05 51°14.178 2°44.777 233.8 12.7 233 7.5
2012-01-09 08:37:11 51°14.166 2°44.75 233.1 12.6 234 7.4
2012-01-09 08:37:16 51°14.155 2°44.728 233.1 12.7 232 -999
2012-01-09 08:37:21 51°14.144 2°44.706 232.6 12.7 233 7.5
2012-01-09 08:37:25 51°14.136 2°44.688 233.2 12.6 233 5.7
2012-01-09 08:37:31 51°14.123 2°44.661 232.9 12.6 232 7.4
2012-01-09 08:37:36 51°14.113 2°44.639 232.3 12.8 233 5.7
2012-01-09 08:37:41 51°14.103 2°44.616 233.5 12.7 235 7.4
2012-01-09 08:37:45 51°14.094 2°44.598 234.1 12.6 232 7.9
2012-01-09 08:37:51 51°14.082 2°44.571 234 12.6 233 7.4
2012-01-09 08:37:56 51°14.071 2°44.549 233.1 12.7 234 -999
2012-01-09 08:38:01 51°14.06 2°44.526 233.7 12.6 233 5.6
2012-01-09 08:38:05 51°14.052 2°44.508 233.2 12.5 234 5.7
2012-01-09 08:38:11 51°14.039 2°44.483 233.1 12.6 231 -999
2012-01-09 08:38:16 51°14.029 2°44.459 232.3 12.6 235 7.4
2012-01-09 08:38:21 51°14.018 2°44.437 233.2 12.7 233 7.8
2012-01-09 08:38:25 51°14.01 2°44.419 233.9 12.7 235 7.7
2012-01-09 08:38:31 51°13.998 2°44.392 234.9 12.6 234 7.6
2012-01-09 08:38:36 51°13.987 2°44.369 233.8 12.7 233 7.8
2012-01-09 08:38:41 51°13.977 2°44.346 233.8 12.7 235 7.9
2012-01-09 08:38:45 51°13.968 2°44.329 234.5 12.6 233 7.9
2012-01-09 08:38:51 51°13.956 2°44.301 233 12.7 235 7.9
2012-01-09 08:38:56 51°13.945 2°44.28 234.1 12.7 231 7.9
2012-01-09 08:39:01 51°13.935 2°44.256 232.9 12.8 235 8.6
2012-01-09 08:39:05 51°13.927 2°44.238 234.6 12.6 234 7.8
2012-01-09 08:39:11 51°13.915 2°44.211 232.9 12.6 234 8.2
2012-01-09 08:39:16 51°13.904 2°44.189 234.2 12.7 235 8.2
2012-01-09 08:39:21 51°13.894 2°44.166 234.9 12.7 235 7.9
2012-01-09 08:39:25 51°13.886 2°44.147 234.8 12.6 236 8.3
2012-01-09 08:39:31 51°13.874 2°44.12 235.6 12.6 234 8.3
2012-01-09 08:39:36 51°13.864 2°44.096 235.5 12.6 237 8.3
2012-01-09 08:39:41 51°13.855 2°44.072 236.9 12.6 238 8.5
2012-01-09 08:39:46 51°13.846 2°44.049 239 12.6 237 8.7
2012-01-09 08:39:51 51°13.837 2°44.024 238.4 12.7 239 8.4
2012-01-09 08:39:55 51°13.83 2°44.005 239.4 12.7 239 8.7
2012-01-09 08:40:01 51°13.819 2°43.976 239.6 12.7 239 8.8
2012-01-09 08:40:05 51°13.811 2°43.958 238.8 12.7 237 8.8
2012-01-09 08:40:11 51°13.799 2°43.929 237.4 12.7 237 8.9
2012-01-09 08:40:16 51°13.788 2°43.907 237.1 12.7 235 8.8
2012-01-09 08:40:21 51°13.779 2°43.883 235.1 12.8 236 9
2012-01-09 08:40:25 51°13.772 2°43.864 236.4 12.6 236 8.8
2012-01-09 08:40:31 51°13.759 2°43.836 235.2 12.8 234 9.3
2012-01-09 08:40:36 51°13.75 2°43.812 236.4 12.8 238 9
2012-01-09 08:40:41 51°13.74 2°43.789 237.5 12.7 237 9.1
2012-01-09 08:40:45 51°13.733 2°43.77 238.2 12.7 239 9.3
2012-01-09 08:40:51 51°13.722 2°43.741 239.4 12.7 239 9.3
2012-01-09 08:40:56 51°13.713 2°43.716 239.9 12.8 240 9.3
2012-01-09 08:41:01 51°13.705 2°43.692 240.7 12.7 240 9.6
2012-01-09 08:41:05 51°13.698 2°43.673 241.6 12.6 241 9.4
2012-01-09 08:41:11 51°13.688 2°43.643 241.7 12.7 241 9.6
2012-01-09 08:41:16 51°13.679 2°43.618 242.5 12.7 241 9.5
2012-01-09 08:41:21 51°13.671 2°43.593 241.8 12.8 241 9.7
2012-01-09 08:41:25 51°13.664 2°43.574 241.8 12.9 242 9.5
2012-01-09 08:41:31 51°13.654 2°43.544 241.5 12.7 242 9.8
2012-01-09 08:41:35 51°13.646 2°43.526 241.1 12.7 237 9.9
2012-01-09 08:41:41 51°13.635 2°43.496 239.1 12.8 240 10.1
2012-01-09 08:41:45 51°13.627 2°43.477 239.4 12.7 237 9.6
2012-01-09 08:41:51 51°13.616 2°43.449 238 12.7 238 9.9
2012-01-09 08:41:56 51°13.606 2°43.425 238.2 12.8 238 10
2012-01-09 08:42:01 51°13.597 2°43.401 238.7 12.8 239 10
2012-01-09 08:42:06 51°13.589 2°43.377 239.4 12.7 239 10
2012-01-09 08:42:11 51°13.579 2°43.353 239.8 12.8 239 10.1
2012-01-09 08:42:15 51°13.572 2°43.333 240 12.8 240 10
2012-01-09 08:42:21 51°13.561 2°43.304 241 12.7 238 10.1
2012-01-09 08:42:25 51°13.554 2°43.285 239.3 12.8 239 10.2
2012-01-09 08:42:31 51°13.542 2°43.256 238.8 12.8 237 10.3
2012-01-09 08:42:36 51°13.533 2°43.233 237.9 12.8 237 10.4
2012-01-09 08:42:41 51°13.523 2°43.209 237.7 12.8 238 10.1
2012-01-09 08:42:46 51°13.513 2°43.185 237.4 12.8 237 10.4
2012-01-09 08:42:51 51°13.504 2°43.161 237.4 12.9 238 10.5
2012-01-09 08:42:56 51°13.494 2°43.137 238.7 12.8 238 10.5
2012-01-09 08:43:01 51°13.485 2°43.113 238.8 12.8 238 10.4
2012-01-09 08:43:05 51°13.478 2°43.094 238.9 12.8 240 10.5
2012-01-09 08:43:10 51°13.468 2°43.07 240.1 12.8 238 10.5
2012-01-09 08:43:16 51°13.458 2°43.04 239.5 12.8 240 10.2
2012-01-09 08:43:21 51°13.449 2°43.016 239.7 12.8 240 10.6
2012-01-09 08:43:25 51°13.443 2°42.996 240.6 12.7 242 10.7
2012-01-09 08:43:31 51°13.431 2°42.967 240.7 12.7 240 10.4
2012-01-09 08:43:36 51°13.422 2°42.942 240.9 12.8 241 10.7
2012-01-09 08:43:41 51°13.413 2°42.918 241.3 12.9 241 10.5
2012-01-09 08:43:45 51°13.406 2°42.898 241.1 12.9 239 10.8
2012-01-09 08:43:51 51°13.395 2°42.869 240.6 12.9 239 10.7
2012-01-09 08:43:56 51°13.386 2°42.845 240.1 12.9 238 10.7
2012-01-09 08:44:01 51°13.376 2°42.821 239.5 12.9 239 10.9
2012-01-09 08:44:06 51°13.367 2°42.796 239.3 12.9 239 10.7
2012-01-09 08:44:11 51°13.357 2°42.772 239.7 13 238 11
2012-01-09 08:44:15 51°13.35 2°42.752 239.8 13 238 10.8
2012-01-09 08:44:21 51°13.339 2°42.723 239.6 13.1 239 10.6
2012-01-09 08:44:25 51°13.331 2°42.703 239.7 13.1 238 11
2012-01-09 08:44:31 51°13.32 2°42.674 239.8 13 238 11.1
2012-01-09 08:44:36 51°13.311 2°42.649 239.5 13.1 239 10.9
2012-01-09 08:44:41 51°13.302 2°42.624 239.1 13.1 239 10.9
2012-01-09 08:44:45 51°13.294 2°42.605 239.8 13 238 11
2012-01-09 08:44:51 51°13.283 2°42.575 239.5 13.1 239 11
2012-01-09 08:44:56 51°13.273 2°42.55 240.4 13.1 239 11
2012-01-09 08:45:01 51°13.264 2°42.525 239.9 13.2 240 10.9
2012-01-09 08:45:05 51°13.257 2°42.505 240.7 13.1 238 11.1
2012-01-09 08:45:11 51°13.245 2°42.475 239.9 13.2 238 10.8
2012-01-09 08:45:16 51°13.236 2°42.451 239.4 13.1 238 11.3
2012-01-09 08:45:21 51°13.226 2°42.426 239 13.2 239 10.9
2012-01-09 08:45:25 51°13.217 2°42.407 237.8 13.2 235 11.2
2012-01-09 08:45:31 51°13.204 2°42.378 237 13.2 235 11.3
2012-01-09 08:45:36 51°13.194 2°42.354 235.8 13.2 235 10.9
2012-01-09 08:45:41 51°13.183 2°42.331 235.4 13.1 234 11.2
2012-01-09 08:45:45 51°13.175 2°42.312 235.6 13.1 235 10.8
2012-01-09 08:45:51 51°13.162 2°42.284 235.2 13.1 233 11
2012-01-09 08:45:56 51°13.152 2°42.26 235.2 13.1 236 11.3
2012-01-09 08:46:01 51°13.141 2°42.236 236.4 13 235 11.2
2012-01-09 08:46:06 51°13.131 2°42.212 236.1 13 237 10.7
2012-01-09 08:46:11 51°13.121 2°42.188 236 13.1 235 11.3
2012-01-09 08:46:15 51°13.113 2°42.169 237 13 238 11.2
2012-01-09 08:46:21 51°13.101 2°42.141 237.8 13 235 11.1
2012-01-09 08:46:25 51°13.093 2°42.12 238 13.1 239 10.9
2012-01-09 08:46:31 51°13.081 2°42.092 238.8 13.1 235 11
2012-01-09 08:46:36 51°13.072 2°42.067 238.2 13 238 11.2
2012-01-09 08:46:41 51°13.063 2°42.043 238.3 13 237 11.3
2012-01-09 08:46:45 51°13.056 2°42.023 239 12.9 241 11.3
2012-01-09 08:46:51 51°13.044 2°41.994 240.2 13 238 11.3
2012-01-09 08:46:56 51°13.035 2°41.969 239.9 13.2 238 11.3
2012-01-09 08:47:01 51°13.025 2°41.945 239.9 13 238 11.2
2012-01-09 08:47:05 51°13.017 2°41.925 238.1 13 237 11.3
2012-01-09 08:47:11 51°13.005 2°41.896 237.8 13 237 11.3
2012-01-09 08:47:16 51°12.994 2°41.873 237.8 13 235 11.1
2012-01-09 08:47:21 51°12.984 2°41.849 236.6 13 235 11.2
2012-01-09 08:47:25 51°12.976 2°41.83 236.4 13 235 11.2
2012-01-09 08:47:31 51°12.964 2°41.802 236 12.9 235 11.1
2012-01-09 08:47:36 51°12.954 2°41.779 236.3 12.9 235 11.1
2012-01-09 08:47:41 51°12.944 2°41.755 235.7 13.1 236 11.3
2012-01-09 08:47:45 51°12.937 2°41.736 237.1 12.8 238 11.1
2012-01-09 08:47:50 51°12.926 2°41.712 237.4 12.9 235 11
2012-01-09 08:47:56 51°12.914 2°41.683 236.7 13.1 237 11.4
2012-01-09 08:48:01 51°12.904 2°41.66 237.2 12.9 234 11.3
2012-01-09 08:48:06 51°12.894 2°41.636 236.3 13 237 11.3
2012-01-09 08:48:11 51°12.885 2°41.612 237.4 13 237 11
2012-01-09 08:48:16 51°12.875 2°41.588 237.6 12.9 237 11
2012-01-09 08:48:21 51°12.865 2°41.565 236.9 12.9 236 11.1
2012-01-09 08:48:26 51°12.854 2°41.541 236.8 13 236 11.4
2012-01-09 08:48:31 51°12.844 2°41.517 237.4 13 235 10.9
2012-01-09 08:48:35 51°12.836 2°41.499 236.3 13 236 11.2
2012-01-09 08:48:41 51°12.825 2°41.47 237.8 12.8 237 11
2012-01-09 08:48:45 51°12.817 2°41.451 237.5 12.9 237 11.2
2012-01-09 08:48:51 51°12.806 2°41.421 238.2 12.8 239 11.1
2012-01-09 08:48:55 51°12.798 2°41.402 238.8 12.7 238 10.9
2012-01-09 08:49:01 51°12.786 2°41.374 238.1 12.9 236 11.3
2012-01-09 08:49:05 51°12.779 2°41.354 238.2 12.9 238 11.1
2012-01-09 08:49:11 51°12.767 2°41.325 238.4 13 236 11.3
2012-01-09 08:49:16 51°12.757 2°41.301 238.3 13 238 11.2
2012-01-09 08:49:21 51°12.748 2°41.277 238.7 12.9 238 11.4
2012-01-09 08:49:25 51°12.741 2°41.257 239.6 12.9 240 11.2
2012-01-09 08:49:31 51°12.73 2°41.228 240.7 12.8 240 11.4
2012-01-09 08:49:36 51°12.721 2°41.203 241 12.9 239 11.3
2012-01-09 08:49:41 51°12.712 2°41.178 240.9 13.1 241 11.3
2012-01-09 08:49:45 51°12.706 2°41.158 243.2 12.9 243 11.2
2012-01-09 08:49:51 51°12.696 2°41.128 243.1 12.8 242 11.1
2012-01-09 08:49:56 51°12.688 2°41.103 243.2 12.8 242 11.2
2012-01-09 08:50:01 51°12.679 2°41.078 243.8 12.9 242 11.3
2012-01-09 08:50:05 51°12.672 2°41.057 244 12.9 242 11.1
2012-01-09 08:50:11 51°12.663 2°41.027 243.3 12.9 242 11.4
2012-01-09 08:50:16 51°12.654 2°41.002 243.4 12.9 241 11.4
2012-01-09 08:50:21 51°12.646 2°40.977 243.3 12.8 243 11.1
2012-01-09 08:50:25 51°12.639 2°40.957 243.5 12.9 241 11.3
2012-01-09 08:50:31 51°12.629 2°40.927 242.9 13 242 11.3
2012-01-09 08:50:36 51°12.62 2°40.902 242.3 12.9 240 11.4
2012-01-09 08:50:41 51°12.611 2°40.878 242.4 12.8 240 11.6
2012-01-09 08:50:45 51°12.605 2°40.857 242.2 12.9 242 11.2
2012-01-09 08:50:51 51°12.594 2°40.827 242.7 13 240 11.5
2012-01-09 08:50:55 51°12.587 2°40.808 242.4 12.8 240 11.2
2012-01-09 08:51:01 51°12.575 2°40.779 240.3 12.8 237 11.7
2012-01-09 08:51:05 51°12.568 2°40.76 239.6 12.9 239 11.3
2012-01-09 08:51:11 51°12.556 2°40.731 239.5 13 237 11
2012-01-09 08:51:16 51°12.546 2°40.707 238.6 13 237 11.3
2012-01-09 08:51:21 51°12.537 2°40.683 238.5 12.7 239 11
2012-01-09 08:51:25 51°12.529 2°40.664 238.8 12.9 237 11.6
2012-01-09 08:51:31 51°12.518 2°40.634 239.4 12.9 239 11.5
2012-01-09 08:51:36 51°12.508 2°40.611 238.9 12.9 236 11.7
2012-01-09 08:51:41 51°12.498 2°40.587 237.4 12.7 237 11.4
2012-01-09 08:51:45 51°12.49 2°40.568 236.6 12.9 236 11.4
2012-01-09 08:51:51 51°12.479 2°40.539 236.8 12.9 238 11.1
2012-01-09 08:51:56 51°12.469 2°40.516 237.5 12.8 236 11
2012-01-09 08:52:01 51°12.459 2°40.493 236.4 12.7 236 11.2
2012-01-09 08:52:05 51°12.45 2°40.474 235.9 12.9 235 11.1
2012-01-09 08:52:11 51°12.438 2°40.446 236.6 12.9 236 11.5
2012-01-09 08:52:16 51°12.429 2°40.422 237.4 12.8 236 11.3
2012-01-09 08:52:21 51°12.419 2°40.398 236.5 12.8 236 10.8
2012-01-09 08:52:25 51°12.411 2°40.379 236.2 12.9 237 11.1
2012-01-09 08:52:31 51°12.399 2°40.351 237.8 12.8 238 10.7
2012-01-09 08:52:36 51°12.389 2°40.327 238 13 236 11.2
2012-01-09 08:52:41 51°12.381 2°40.302 238.2 13 240 11.2
2012-01-09 08:52:45 51°12.374 2°40.283 239.8 12.9 239 11.1
2012-01-09 08:52:51 51°12.364 2°40.253 240.5 12.8 242 10.9
2012-01-09 08:52:55 51°12.356 2°40.233 242.2 12.7 241 10.6
2012-01-09 08:53:01 51°12.345 2°40.204 242.1 13 240 11.3
2012-01-09 08:53:05 51°12.339 2°40.183 243 12.9 243 10.8
2012-01-09 08:53:11 51°12.329 2°40.154 242.1 12.9 240 11.2
2012-01-09 08:53:16 51°12.32 2°40.129 242.7 12.8 242 11.3
2012-01-09 08:53:21 51°12.312 2°40.104 242.9 12.8 241 11.1
2012-01-09 08:53:25 51°12.305 2°40.084 241.7 12.9 241 11.2
2012-01-09 08:53:31 51°12.295 2°40.054 241.9 12.9 242 9.9
2012-01-09 08:53:36 51°12.286 2°40.03 242.4 12.7 242 10.3
2012-01-09 08:53:41 51°12.277 2°40.005 242.3 12.7 240 11.1
2012-01-09 08:53:45 51°12.271 2°39.985 242.3 12.9 242 10.9
2012-01-09 08:53:51 51°12.261 2°39.955 242.9 12.9 243 10.8
2012-01-09 08:53:56 51°12.251 2°39.93 242.4 12.9 240 10.9
2012-01-09 08:54:01 51°12.243 2°39.905 240.9 13 241 11.1
2012-01-09 08:54:06 51°12.234 2°39.881 241.9 12.8 241 10.9
2012-01-09 08:54:11 51°12.225 2°39.857 241.9 12.9 240 10.7
2012-01-09 08:54:16 51°12.216 2°39.831 241.3 13 239 11
2012-01-09 08:54:21 51°12.208 2°39.807 241.6 12.9 241 10.7
2012-01-09 08:54:25 51°12.201 2°39.787 241.9 12.8 240 10.9
2012-01-09 08:54:31 51°12.19 2°39.757 241.4 12.9 240 11
2012-01-09 08:54:36 51°12.182 2°39.732 241.3 12.8 241 10.8
2012-01-09 08:54:41 51°12.173 2°39.708 241.5 12.8 240 10.4
2012-01-09 08:54:45 51°12.166 2°39.688 240.1 12.8 241 10.6
2012-01-09 08:54:50 51°12.157 2°39.665 241.1 12.6 239 10.6
2012-01-09 08:54:56 51°12.145 2°39.636 239 12.8 239 10.7
2012-01-09 08:55:01 51°12.135 2°39.612 239 12.8 239 10.7
2012-01-09 08:55:05 51°12.128 2°39.593 239.6 12.8 238 10.7
2012-01-09 08:55:11 51°12.116 2°39.564 238.9 12.9 237 10.7
2012-01-09 08:55:16 51°12.108 2°39.539 238.4 12.9 239 10.9
2012-01-09 08:55:21 51°12.098 2°39.516 239.2 12.7 236 10.7
2012-01-09 08:55:26 51°12.088 2°39.492 237.7 12.9 238 10.8
2012-01-09 08:55:31 51°12.079 2°39.468 237.8 12.9 237 10.3
2012-01-09 08:55:35 51°12.071 2°39.449 237.5 12.8 236 10.8
2012-01-09 08:55:41 51°12.059 2°39.421 237.1 12.8 236 10.8
2012-01-09 08:55:45 51°12.051 2°39.403 236.7 12.7 236 10.7
2012-01-09 08:55:51 51°12.039 2°39.374 236.7 12.9 237 10.9
2012-01-09 08:55:55 51°12.032 2°39.355 237.8 12.7 237 10.6
2012-01-09 08:56:01 51°12.02 2°39.327 237.4 12.7 237 10.4
2012-01-09 08:56:05 51°12.013 2°39.308 237.4 12.8 238 10.8
2012-01-09 08:56:11 51°12.002 2°39.279 239.2 12.9 239 11
2012-01-09 08:56:16 51°11.993 2°39.255 240.3 12.8 240 10.7
2012-01-09 08:56:21 51°11.984 2°39.23 240.4 12.8 238 11.1
2012-01-09 08:56:25 51°11.977 2°39.21 240.7 12.8 240 10.9
2012-01-09 08:56:31 51°11.967 2°39.181 241.1 12.8 240 11
2012-01-09 08:56:36 51°11.958 2°39.156 241.1 12.8 239 11.3
2012-01-09 08:56:41 51°11.949 2°39.132 240.9 12.8 239 10.7
2012-01-09 08:56:45 51°11.941 2°39.113 240 12.9 239 10.6
2012-01-09 08:56:51 51°11.93 2°39.084 240.3 12.8 240 10.9
2012-01-09 08:56:56 51°11.921 2°39.06 240.6 12.5 239 10.7
2012-01-09 08:57:01 51°11.912 2°39.036 238.9 12.8 238 10.9
2012-01-09 08:57:05 51°11.904 2°39.017 238.2 12.7 236 10.6
2012-01-09 08:57:11 51°11.891 2°38.991 236.6 12.6 234 11.1
2012-01-09 08:57:16 51°11.881 2°38.967 234.2 12.9 235 10.6
2012-01-09 08:57:21 51°11.871 2°38.944 235.6 12.7 236 11
2012-01-09 08:57:26 51°11.861 2°38.921 235.4 12.6 235 10.7
2012-01-09 08:57:31 51°11.851 2°38.898 235.6 12.8 235 10.7
2012-01-09 08:57:35 51°11.844 2°38.879 236.5 12.7 237 10.7
2012-01-09 08:57:41 51°11.831 2°38.852 235.8 12.7 235 10.4
2012-01-09 08:57:46 51°11.821 2°38.828 235.7 12.8 237 11.1
2012-01-09 08:57:50 51°11.814 2°38.809 237.4 12.7 237 10.4
2012-01-09 08:57:56 51°11.803 2°38.781 236.6 12.7 237 10.7
2012-01-09 08:58:01 51°11.793 2°38.758 237.8 12.6 238 10.6
2012-01-09 08:58:05 51°11.785 2°38.739 237.3 12.8 238 10.5
2012-01-09 08:58:11 51°11.775 2°38.71 238.9 12.7 239 10.8
2012-01-09 08:58:16 51°11.766 2°38.686 240.1 12.7 240 10.6
2012-01-09 08:58:21 51°11.757 2°38.661 240.6 12.7 240 10.6
2012-01-09 08:58:25 51°11.75 2°38.642 241.8 12.8 240 10.6
2012-01-09 08:58:31 51°11.74 2°38.612 241.8 12.7 242 10.7
2012-01-09 08:58:36 51°11.731 2°38.587 242.3 12.8 240 10.9
2012-01-09 08:58:41 51°11.724 2°38.562 242.4 12.7 244 10.4
2012-01-09 08:58:45 51°11.716 2°38.543 242.6 12.7 240 10.9
2012-01-09 08:58:51 51°11.706 2°38.513 242.4 12.8 242 10.6
2012-01-09 08:58:56 51°11.698 2°38.488 242.6 12.7 242 10.8
2012-01-09 08:59:01 51°11.689 2°38.464 241.9 12.7 241 10.7
2012-01-09 08:59:05 51°11.683 2°38.444 241.8 12.7 242 10.7
2012-01-09 08:59:11 51°11.672 2°38.415 242 12.7 239 11.1
2012-01-09 08:59:16 51°11.662 2°38.391 240.1 12.8 239 10.7
2012-01-09 08:59:21 51°11.652 2°38.368 238.7 12.8 236 10.9
2012-01-09 08:59:25 51°11.644 2°38.349 237 12.8 236 11
2012-01-09 08:59:31 51°11.633 2°38.321 236.9 12.7 236 10.9
2012-01-09 08:59:36 51°11.623 2°38.298 236.5 12.7 237 11
2012-01-09 08:59:41 51°11.613 2°38.275 236.6 12.6 236 10.7
2012-01-09 08:59:45 51°11.604 2°38.256 234.9 12.9 235 11.1
2012-01-09 08:59:51 51°11.592 2°38.229 236.2 12.7 237 11
2012-01-09 08:59:56 51°11.582 2°38.206 235.8 12.5 234 10.8
2012-01-09 09:00:01 51°11.573 2°38.182 235.2 12.7 236 11
2012-01-09 09:00:05 51°11.564 2°38.164 236 12.8 234 11
2012-01-09 09:00:11 51°11.553 2°38.135 235.8 12.9 237 11.3
2012-01-09 09:00:16 51°11.544 2°38.112 237.5 12.6 237 10.8
2012-01-09 09:00:21 51°11.534 2°38.088 237 12.8 237 11.1
2012-01-09 09:00:25 51°11.527 2°38.068 238.5 12.8 241 11
2012-01-09 09:00:31 51°11.516 2°38.04 240.3 12.6 238 11.1
2012-01-09 09:00:36 51°11.507 2°38.016 239.4 12.7 239 11.3
2012-01-09 09:00:41 51°11.498 2°37.991 239.8 12.8 242 11.3
2012-01-09 09:00:46 51°11.489 2°37.967 241.2 12.7 239 11.7
2012-01-09 09:00:51 51°11.48 2°37.943 240.8 12.8 240 11.5
2012-01-09 09:00:56 51°11.472 2°37.918 240.8 12.8 241 11.9
2012-01-09 09:01:01 51°11.463 2°37.894 241.9 12.6 241 11.6
2012-01-09 09:01:05 51°11.456 2°37.874 241.6 12.7 240 11.9
2012-01-09 09:01:11 51°11.446 2°37.844 241.5 12.8 242 11.7
2012-01-09 09:01:16 51°11.437 2°37.82 242.9 12.7 241 12.1
2012-01-09 09:01:21 51°11.429 2°37.795 241.9 12.7 240 12
2012-01-09 09:01:25 51°11.422 2°37.775 241.1 12.8 242 12.1
2012-01-09 09:01:31 51°11.411 2°37.746 241.2 12.8 241 12
2012-01-09 09:01:36 51°11.403 2°37.721 241.5 12.9 242 12
2012-01-09 09:01:41 51°11.394 2°37.697 242.4 12.7 241 12.2
2012-01-09 09:01:45 51°11.387 2°37.677 241.1 12.7 240 12.1
2012-01-09 09:01:51 51°11.376 2°37.648 240.3 12.8 240 12.3
2012-01-09 09:01:56 51°11.367 2°37.624 240.9 12.8 239 12.6
2012-01-09 09:02:01 51°11.358 2°37.599 240.5 12.8 241 12.4
2012-01-09 09:02:05 51°11.351 2°37.58 240.6 12.8 239 12.4
2012-01-09 09:02:11 51°11.34 2°37.551 240.4 12.8 239 12.9
2012-01-09 09:02:16 51°11.331 2°37.526 239.9 12.8 241 12.5
2012-01-09 09:02:21 51°11.322 2°37.502 240.3 12.8 238 12.7
2012-01-09 09:02:26 51°11.313 2°37.477 240.3 12.8 240 12.8
2012-01-09 09:02:31 51°11.304 2°37.454 240.4 12.8 238 12.8
2012-01-09 09:02:36 51°11.294 2°37.429 239.6 12.9 239 13
2012-01-09 09:02:41 51°11.285 2°37.405 239.3 12.8 238 12.6
2012-01-09 09:02:45 51°11.277 2°37.386 238.3 12.8 237 13.1
2012-01-09 09:02:51 51°11.265 2°37.358 237.8 12.7 237 12.5
2012-01-09 09:02:56 51°11.255 2°37.335 236 12.9 234 12.6
2012-01-09 09:03:01 51°11.245 2°37.312 235.9 12.9 235 13
2012-01-09 09:03:05 51°11.237 2°37.294 235.7 12.7 234 13.1
2012-01-09 09:03:11 51°11.225 2°37.265 235.2 12.8 236 12.9
2012-01-09 09:03:16 51°11.215 2°37.241 235.9 12.8 237 12.6
2012-01-09 09:03:21 51°11.205 2°37.218 236.9 12.7 236 12.7
2012-01-09 09:03:25 51°11.197 2°37.2 236 12.7 236 13.1
2012-01-09 09:03:31 51°11.186 2°37.172 237.3 12.7 237 12.9
2012-01-09 09:03:36 51°11.176 2°37.147 237.4 12.8 238 12.6
2012-01-09 09:03:41 51°11.167 2°37.123 238.3 12.7 240 12.6
2012-01-09 09:03:45 51°11.16 2°37.105 239.6 12.6 238 13.1
2012-01-09 09:03:50 51°11.15 2°37.08 239.9 12.7 239 12.8
2012-01-09 09:03:56 51°11.14 2°37.051 240 12.7 240 12.7
2012-01-09 09:04:01 51°11.131 2°37.027 240.6 12.8 240 12.9
2012-01-09 09:04:05 51°11.124 2°37.007 240.3 12.8 242 12.9
2012-01-09 09:04:11 51°11.112 2°36.979 241.1 12.6 237 12.5
2012-01-09 09:04:16 51°11.104 2°36.954 240 12.7 240 12.8
2012-01-09 09:04:21 51°11.093 2°36.932 238.6 12.7 234 13
2012-01-09 09:04:25 51°11.085 2°36.914 234.7 12.7 232 12.8
2012-01-09 09:04:31 51°11.071 2°36.889 231 12.7 229 12.3
2012-01-09 09:04:36 51°11.058 2°36.869 226.9 12.7 227 12.7
2012-01-09 09:04:41 51°11.045 2°36.849 225.1 12.8 225 12.3
2012-01-09 09:04:45 51°11.035 2°36.834 223.7 12.7 225 12.2
2012-01-09 09:04:51 51°11.019 2°36.811 222.6 12.7 223 12.3
2012-01-09 09:04:56 51°11.006 2°36.793 222.3 12.6 221 12.3